createdAt,value
2023-02-22T10:55:20.442Z,18.60
2023-02-22T10:56:23.743Z,19.06
2023-02-22T10:57:27.009Z,18.28
2023-02-22T10:58:30.291Z,17.25
2023-02-22T10:59:33.491Z,22.81
2023-02-22T11:00:37.074Z,19.20
2023-02-22T11:01:40.215Z,20.78
2023-02-22T11:02:43.221Z,23.42
2023-02-22T11:03:46.410Z,18.45
2023-02-22T11:04:49.999Z,19.56
2023-02-22T11:05:53.597Z,22.96
2023-02-22T11:06:56.561Z,19.12
2023-02-22T11:07:59.486Z,22.22
2023-02-22T11:09:02.918Z,22.05
2023-02-22T11:10:06.118Z,20.06
2023-02-22T11:11:09.286Z,17.28
2023-02-22T11:12:12.376Z,18.65
2023-02-22T11:13:15.356Z,18.04
2023-02-22T11:14:18.321Z,22.42
2023-02-22T11:15:21.319Z,19.95
2023-02-22T11:16:24.503Z,20.27
2023-02-22T11:17:28.174Z,26.09
2023-02-22T11:18:31.472Z,21.18
2023-02-22T11:19:34.535Z,20.22
2023-02-22T11:20:37.414Z,20.38
2023-02-22T11:21:40.501Z,23.99
2023-02-22T11:22:43.468Z,23.44
2023-02-22T11:23:46.649Z,19.05
2023-02-22T11:24:49.771Z,20.38
2023-02-22T11:25:52.720Z,22.68
2023-02-22T11:26:56.022Z,18.52
2023-02-22T11:27:58.771Z,20.63
2023-02-22T11:29:02.400Z,24.15
2023-02-22T11:30:05.892Z,21.36
2023-02-22T11:31:08.971Z,23.35
2023-02-22T11:32:12.478Z,23.29
2023-02-22T11:33:15.610Z,20.34
2023-02-22T11:34:18.886Z,21.97
2023-02-22T11:35:21.967Z,20.29
2023-02-22T11:36:25.047Z,22.25
2023-02-22T11:37:28.320Z,19.06
2023-02-22T11:38:31.297Z,22.35
2023-02-22T11:39:34.408Z,22.36
2023-02-22T11:40:37.360Z,20.21
2023-02-22T11:41:40.451Z,21.78
2023-02-22T11:42:43.513Z,21.32
2023-02-22T11:43:46.494Z,18.44
2023-02-22T11:44:49.986Z,20.91
2023-02-22T11:45:58.992Z,20.66
2023-02-22T11:46:57.690Z,19.77
2023-02-22T11:48:00.992Z,20.02
2023-02-22T11:49:04.372Z,18.61
2023-02-22T11:50:08.004Z,20.18
2023-02-22T11:51:14.116Z,20.46
2023-02-22T11:52:15.829Z,22.25
2023-02-22T11:53:18.919Z,18.06
2023-02-22T11:54:22.305Z,21.00
2023-02-22T11:55:41.449Z,22.12
2023-02-22T11:56:37.814Z,21.29
2023-02-22T11:57:35.222Z,18.71
2023-02-22T11:58:38.520Z,19.75
2023-02-22T11:59:41.829Z,22.62
2023-02-22T12:00:44.985Z,17.70
2023-02-22T12:01:47.858Z,21.23
2023-02-22T12:02:56.865Z,20.01
2023-02-22T12:03:55.973Z,22.47
2023-02-22T12:04:59.088Z,18.24
2023-02-22T12:06:02.144Z,18.73
2023-02-22T12:07:04.987Z,18.04
2023-02-22T12:08:19.234Z,17.43
2023-02-22T12:09:12.882Z,17.21
2023-02-22T12:10:16.003Z,19.34
2023-02-22T12:11:19.061Z,19.00
2023-02-22T12:12:22.242Z,18.18
2023-02-22T12:13:25.304Z,17.17
2023-02-22T12:14:28.593Z,20.59
2023-02-22T12:15:31.718Z,18.02
2023-02-22T12:16:35.683Z,19.48
2023-02-22T12:17:40.252Z,17.47
2023-02-22T12:18:43.272Z,18.23
2023-02-22T12:19:46.452Z,16.75
2023-02-22T12:20:49.524Z,21.19
2023-02-22T12:21:52.910Z,18.82
2023-02-22T12:22:55.882Z,21.77
2023-02-22T12:23:58.972Z,19.93
2023-02-22T12:25:09.406Z,18.22
2023-02-22T12:26:06.618Z,19.09
2023-02-22T12:27:09.664Z,20.39
2023-02-22T12:28:23.728Z,19.58
2023-02-22T12:29:16.962Z,16.47
2023-02-22T12:30:20.372Z,18.49
2023-02-22T12:31:23.108Z,16.04
2023-02-22T12:32:26.233Z,19.23
2023-02-22T12:33:29.166Z,16.20
2023-02-22T12:34:32.210Z,19.01
2023-02-22T12:35:35.316Z,18.30
2023-02-22T12:36:37.985Z,18.70
2023-02-22T12:37:40.957Z,21.12
2023-02-22T12:38:43.769Z,16.72
2023-02-22T12:39:53.150Z,19.78
2023-02-22T12:40:51.730Z,21.84
2023-02-22T12:41:54.610Z,19.29
2023-02-22T12:42:57.629Z,18.81
2023-02-22T12:44:00.558Z,22.55
2023-02-22T12:45:05.108Z,23.20
2023-02-22T12:46:07.799Z,18.31
2023-02-22T12:47:10.719Z,21.88
2023-02-22T12:48:13.399Z,20.49
2023-02-22T12:49:15.957Z,21.86
2023-02-22T12:50:18.949Z,22.37
2023-02-22T12:51:22.313Z,19.36
2023-02-22T12:52:25.305Z,22.05
2023-02-22T12:53:27.958Z,23.46
2023-02-22T12:54:30.738Z,18.37
2023-02-22T12:55:33.608Z,20.68
2023-02-22T12:56:36.393Z,19.51
2023-02-22T12:57:39.099Z,22.49
2023-02-22T12:58:41.932Z,30.25
2023-02-22T12:59:44.695Z,21.69
2023-02-22T13:00:47.775Z,22.85
2023-02-22T13:01:50.746Z,19.52
2023-02-22T13:02:53.423Z,20.50
2023-02-22T13:03:56.513Z,20.83
2023-02-22T13:04:59.618Z,20.75
2023-02-22T13:06:02.363Z,20.95
2023-02-22T13:07:05.541Z,21.98
2023-02-22T13:08:08.205Z,17.48
2023-02-22T13:09:11.080Z,18.55
2023-02-22T13:10:14.052Z,19.00
2023-02-22T13:11:17.194Z,18.83
2023-02-22T13:12:20.217Z,20.66
2023-02-22T13:13:23.099Z,22.61
2023-02-22T13:14:25.784Z,22.61
2023-02-22T13:15:28.543Z,21.84
2023-02-22T13:16:31.528Z,21.68
2023-02-22T13:17:34.834Z,23.17
2023-02-22T13:18:37.870Z,19.88
2023-02-22T13:19:40.764Z,21.55
2023-02-22T13:20:43.646Z,22.21
2023-02-22T13:21:46.528Z,19.94
2023-02-22T13:22:49.886Z,22.31
2023-02-22T13:23:53.088Z,20.39
2023-02-22T13:24:56.153Z,21.45
2023-02-22T13:25:59.140Z,24.92
2023-02-22T13:27:02.036Z,16.61
2023-02-22T13:28:05.480Z,16.26
2023-02-22T13:29:08.357Z,20.99
2023-02-22T13:30:11.035Z,19.56
2023-02-22T13:31:14.145Z,21.17
2023-02-22T13:32:17.233Z,19.04
2023-02-22T13:33:20.289Z,21.71
2023-02-22T13:34:23.356Z,21.41
2023-02-22T13:35:26.444Z,23.48
2023-02-22T13:36:29.636Z,24.86
2023-02-22T13:37:34.198Z,17.23
2023-02-22T13:38:37.311Z,20.24
2023-02-22T13:39:40.295Z,20.51
2023-02-22T13:40:43.277Z,17.56
2023-02-22T13:41:46.236Z,22.11
2023-02-22T13:42:49.130Z,22.07
2023-02-22T13:43:52.392Z,21.70
2023-02-22T13:44:55.584Z,21.90
2023-02-22T13:45:58.793Z,19.92
2023-02-22T13:47:01.734Z,22.23
2023-02-22T13:48:04.663Z,20.52
2023-02-22T13:49:08.029Z,18.93
2023-02-22T13:50:10.974Z,21.92
2023-02-22T13:51:13.954Z,20.97
2023-02-22T13:52:17.038Z,19.63
2023-02-22T13:53:19.810Z,19.86
2023-02-22T13:54:23.219Z,19.56
2023-02-22T13:55:26.164Z,20.75
2023-02-22T13:56:29.241Z,22.48
2023-02-22T13:57:31.908Z,23.57
2023-02-22T13:58:34.992Z,21.00
2023-02-22T13:59:37.786Z,20.05
2023-02-22T14:00:40.328Z,20.65
2023-02-22T14:01:43.224Z,18.52
2023-02-22T14:02:46.206Z,18.92
2023-02-22T14:03:49.473Z,21.68
2023-02-22T14:04:52.676Z,20.58
2023-02-22T14:05:55.827Z,18.10
2023-02-22T14:06:58.702Z,19.41
2023-02-22T14:08:01.483Z,19.01
2023-02-22T14:09:04.353Z,19.08
2023-02-22T14:10:07.102Z,19.48
2023-02-22T14:11:09.995Z,21.32
2023-02-22T14:12:12.974Z,19.88
2023-02-22T14:13:15.545Z,21.35
2023-02-22T14:14:18.223Z,19.31
2023-02-22T14:15:30.503Z,22.22
2023-02-22T14:16:25.453Z,21.45
2023-02-22T14:17:28.195Z,20.72
2023-02-22T14:18:31.137Z,21.38
2023-02-22T14:19:33.853Z,21.46
2023-02-22T14:20:37.170Z,18.16
2023-02-22T14:21:40.385Z,22.18
2023-02-22T14:22:45.687Z,18.11
2023-02-22T14:23:48.281Z,18.73
2023-02-22T14:24:50.952Z,17.20
2023-02-22T14:25:54.133Z,15.46
2023-02-22T14:26:56.807Z,17.65
2023-02-22T14:27:59.791Z,17.11
2023-02-22T14:29:02.549Z,16.81
2023-02-22T14:30:05.668Z,18.25
2023-02-22T14:31:08.861Z,18.59
2023-02-22T14:32:12.463Z,14.80
2023-02-22T14:33:15.503Z,13.93
2023-02-22T14:34:18.477Z,16.91
2023-02-22T14:35:27.450Z,18.45
2023-02-22T14:36:26.153Z,17.13
2023-02-22T14:37:29.029Z,16.39
2023-02-22T14:38:32.005Z,12.90
2023-02-22T14:39:34.992Z,14.35
2023-02-22T14:40:37.860Z,14.08
2023-02-22T14:41:41.058Z,16.24
2023-02-22T14:42:44.042Z,18.30
2023-02-22T14:43:46.895Z,16.25
2023-02-22T14:44:50.241Z,18.21
2023-02-22T14:45:53.652Z,14.71
2023-02-22T14:46:57.050Z,15.31
2023-02-22T14:48:00.127Z,17.54
2023-02-22T14:49:02.902Z,16.18
2023-02-22T14:50:05.885Z,14.72
2023-02-22T14:51:20.583Z,13.54
2023-02-22T14:52:13.281Z,15.28
2023-02-22T14:53:16.346Z,16.65
2023-02-22T14:54:19.533Z,14.77
2023-02-22T14:55:22.622Z,13.48
2023-02-22T14:56:25.390Z,15.08
2023-02-22T14:57:29.833Z,16.34
2023-02-22T14:58:32.874Z,13.35
2023-02-22T14:59:35.952Z,17.85
2023-02-22T15:00:39.182Z,16.20
2023-02-22T15:01:55.314Z,15.18
2023-02-22T15:02:47.325Z,14.11
2023-02-22T15:04:01.968Z,15.27
2023-02-22T15:04:54.585Z,15.85
2023-02-22T15:05:57.496Z,16.54
2023-02-22T15:07:00.373Z,17.98
2023-02-22T15:08:03.552Z,19.78
2023-02-22T15:09:06.531Z,15.71
2023-02-22T15:10:09.511Z,16.47
2023-02-22T15:11:12.485Z,17.84
2023-02-22T15:12:15.569Z,17.31
2023-02-22T15:13:18.445Z,21.56
2023-02-22T15:14:26.157Z,21.20
2023-02-22T15:15:26.060Z,16.67
2023-02-22T15:16:29.069Z,18.44
2023-02-22T15:17:31.891Z,20.58
2023-02-22T15:18:34.872Z,15.52
2023-02-22T15:19:37.734Z,15.88
2023-02-22T15:20:40.714Z,16.15
2023-02-22T15:21:43.692Z,16.33
2023-02-22T15:22:46.781Z,16.67
2023-02-22T15:23:50.172Z,18.05
2023-02-22T15:24:53.443Z,17.66
2023-02-22T15:25:56.216Z,16.57
2023-02-22T15:27:02.533Z,15.09
2023-02-22T15:28:03.637Z,14.29
2023-02-22T15:29:06.699Z,14.92
2023-02-22T15:30:09.721Z,18.85
2023-02-22T15:31:12.541Z,21.19
2023-02-22T15:32:15.525Z,19.38
2023-02-22T15:33:19.070Z,18.52
2023-02-22T15:34:22.284Z,17.31
2023-02-22T15:35:25.158Z,18.04
2023-02-22T15:36:28.136Z,16.00
2023-02-22T15:37:31.139Z,14.55
2023-02-22T15:38:34.094Z,14.33
2023-02-22T15:39:37.601Z,15.17
2023-02-22T15:40:40.493Z,13.81
2023-02-22T15:41:43.439Z,13.02
2023-02-22T15:42:46.322Z,14.60
2023-02-22T15:43:49.281Z,19.42
2023-02-22T15:44:52.260Z,16.22
2023-02-22T15:45:55.485Z,15.95
2023-02-22T15:46:58.445Z,17.50
2023-02-22T15:48:01.298Z,16.51
2023-02-22T15:49:04.169Z,16.33
2023-02-22T15:50:07.356Z,15.58
2023-02-22T15:51:10.452Z,13.84
2023-02-22T15:52:13.451Z,17.29
2023-02-22T15:53:16.391Z,22.18
2023-02-22T15:54:27.059Z,17.47
2023-02-22T15:55:25.693Z,19.57
2023-02-22T15:56:28.724Z,16.27
2023-02-22T15:57:31.678Z,14.78
2023-02-22T15:58:34.669Z,13.12
2023-02-22T15:59:37.736Z,15.57
2023-02-22T16:00:40.940Z,13.18
2023-02-22T16:01:43.865Z,13.75
2023-02-22T16:02:47.695Z,13.19
2023-02-22T16:03:50.762Z,16.52
2023-02-22T16:04:59.583Z,14.44
2023-02-22T16:05:59.173Z,14.51
2023-02-22T16:07:02.155Z,15.25
2023-02-22T16:08:05.129Z,17.33
2023-02-22T16:09:08.211Z,12.53
2023-02-22T16:10:10.989Z,13.51
2023-02-22T16:11:13.753Z,14.45
2023-02-22T16:12:16.640Z,17.01
2023-02-22T16:13:31.038Z,11.66
2023-02-22T16:14:24.117Z,13.68
2023-02-22T16:15:26.994Z,15.93
2023-02-22T16:16:30.138Z,16.27
2023-02-22T16:17:33.180Z,16.91
2023-02-22T16:18:36.093Z,18.92
2023-02-22T16:19:41.394Z,16.62
2023-02-22T16:20:43.956Z,13.79
2023-02-22T16:21:47.020Z,15.72
2023-02-22T16:22:49.992Z,17.89
2023-02-22T16:23:52.972Z,15.52
2023-02-22T16:24:56.033Z,13.51
2023-02-22T16:25:59.118Z,18.06
2023-02-22T16:27:02.015Z,16.91
2023-02-22T16:28:04.765Z,14.71
2023-02-22T16:29:07.646Z,13.38
2023-02-22T16:30:23.260Z,12.69
2023-02-22T16:31:15.390Z,11.71
2023-02-22T16:32:18.919Z,15.26
2023-02-22T16:33:21.912Z,16.49
2023-02-22T16:34:25.086Z,14.61
2023-02-22T16:35:28.117Z,15.69
2023-02-22T16:36:31.137Z,16.82
2023-02-22T16:37:34.029Z,15.68
2023-02-22T16:38:36.996Z,16.05
2023-02-22T16:39:41.729Z,16.95
2023-02-22T16:40:44.804Z,15.67
2023-02-22T16:41:47.557Z,17.06
2023-02-22T16:42:50.554Z,16.40
2023-02-22T16:43:53.345Z,18.43
2023-02-22T16:44:56.209Z,18.23
2023-02-22T16:45:59.567Z,16.32
2023-02-22T16:47:02.566Z,15.85
2023-02-22T16:48:05.948Z,15.04
2023-02-22T16:49:09.217Z,15.75
2023-02-22T16:50:12.306Z,17.81
2023-02-22T16:51:15.286Z,16.76
2023-02-22T16:52:18.456Z,12.56
2023-02-22T16:53:21.856Z,13.11
2023-02-22T16:54:24.718Z,14.60
2023-02-22T16:55:27.691Z,13.85
2023-02-22T16:56:31.267Z,15.58
2023-02-22T16:57:34.158Z,16.00
2023-02-22T16:58:37.550Z,13.69
2023-02-22T16:59:40.635Z,15.59
2023-02-22T17:00:44.122Z,16.42
2023-02-22T17:01:47.023Z,14.94
2023-02-22T17:02:49.656Z,17.18
2023-02-22T17:03:52.539Z,16.46
2023-02-22T17:04:55.314Z,16.30
2023-02-22T17:05:58.178Z,14.18
2023-02-22T17:07:02.622Z,15.28
2023-02-22T17:08:05.771Z,15.89
2023-02-22T17:09:08.745Z,17.34
2023-02-22T17:10:11.647Z,14.95
2023-02-22T17:11:14.826Z,13.82
2023-02-22T17:12:18.008Z,12.46
2023-02-22T17:13:24.928Z,13.88
2023-02-22T17:14:25.785Z,14.71
2023-02-22T17:15:28.666Z,11.95
2023-02-22T17:16:31.527Z,13.15
2023-02-22T17:17:34.404Z,15.18
2023-02-22T17:18:37.394Z,15.57
2023-02-22T17:19:40.582Z,14.96
2023-02-22T17:20:43.746Z,15.92
2023-02-22T17:21:46.629Z,14.34
2023-02-22T17:22:49.577Z,16.50
2023-02-22T17:23:52.389Z,15.14
2023-02-22T17:24:55.567Z,14.90
2023-02-22T17:25:58.530Z,15.95
2023-02-22T17:27:01.523Z,16.33
2023-02-22T17:28:04.390Z,14.92
2023-02-22T17:29:07.264Z,13.87
2023-02-22T17:30:10.276Z,14.50
2023-02-22T17:31:13.449Z,15.75
2023-02-22T17:32:16.635Z,16.42
2023-02-22T17:33:19.475Z,18.90
2023-02-22T17:34:22.348Z,17.32
2023-02-22T17:35:25.529Z,16.22
2023-02-22T17:36:28.428Z,16.02
2023-02-22T17:37:31.281Z,15.63
2023-02-22T17:38:34.363Z,17.78
2023-02-22T17:39:37.252Z,19.70
2023-02-22T17:40:40.168Z,15.73
2023-02-22T17:41:43.085Z,14.44
2023-02-22T17:42:46.063Z,15.46
2023-02-22T17:43:49.051Z,15.90
2023-02-22T17:44:51.928Z,16.32
2023-02-22T17:45:54.880Z,16.26
2023-02-22T17:46:57.476Z,14.53
2023-02-22T17:48:00.250Z,14.33
2023-02-22T17:49:03.008Z,20.46
2023-02-22T17:50:05.632Z,20.91
2023-02-22T17:51:08.674Z,17.10
2023-02-22T17:52:11.143Z,17.68
2023-02-22T17:53:13.805Z,20.38
2023-02-22T17:54:16.807Z,15.15
2023-02-22T17:55:20.282Z,16.46
2023-02-22T17:56:23.470Z,14.70
2023-02-22T17:57:26.513Z,14.96
2023-02-22T17:58:29.403Z,14.89
2023-02-22T17:59:32.262Z,14.45
2023-02-22T18:00:35.142Z,15.57
2023-02-22T18:01:38.299Z,13.41
2023-02-22T18:02:41.218Z,13.56
2023-02-22T18:03:43.979Z,14.37
2023-02-22T18:04:46.843Z,13.85
2023-02-22T18:05:49.856Z,20.58
2023-02-22T18:06:52.897Z,17.19
2023-02-22T18:07:55.871Z,13.05
2023-02-22T18:08:58.754Z,13.71
2023-02-22T18:10:01.540Z,13.92
2023-02-22T18:11:04.902Z,14.45
2023-02-22T18:12:07.702Z,13.42
2023-02-22T18:13:10.552Z,14.74
2023-02-22T18:14:13.439Z,12.25
2023-02-22T18:15:16.610Z,12.35
2023-02-22T18:16:19.761Z,13.91
2023-02-22T18:17:22.877Z,13.12
2023-02-22T18:18:25.751Z,11.26
2023-02-22T18:19:28.615Z,11.67
2023-02-22T18:20:31.603Z,10.63
2023-02-22T18:21:34.889Z,14.30
2023-02-22T18:22:38.081Z,10.54
2023-02-22T18:23:41.165Z,11.73
2023-02-22T18:24:43.921Z,12.32
2023-02-22T18:25:47.635Z,10.41
2023-02-22T18:26:51.254Z,12.48
2023-02-22T18:27:54.613Z,10.90
2023-02-22T18:28:57.160Z,12.40
2023-02-22T18:30:00.144Z,13.72
2023-02-22T18:31:03.436Z,11.65
2023-02-22T18:32:06.315Z,12.61
2023-02-22T18:33:09.369Z,12.18
2023-02-22T18:34:12.448Z,12.18
2023-02-22T18:35:15.438Z,11.89
2023-02-22T18:36:18.737Z,11.52
2023-02-22T18:37:21.799Z,11.27
2023-02-22T18:38:24.884Z,10.89
2023-02-22T18:39:27.854Z,12.49
2023-02-22T18:40:30.922Z,11.47
2023-02-22T18:41:33.851Z,12.60
2023-02-22T18:42:36.779Z,12.62
2023-02-22T18:43:39.663Z,12.66
2023-02-22T18:44:42.639Z,12.02
2023-02-22T18:45:45.407Z,15.15
2023-02-22T18:46:48.206Z,14.56
2023-02-22T18:47:50.952Z,12.68
2023-02-22T18:48:54.144Z,15.26
2023-02-22T18:49:56.908Z,14.58
2023-02-22T18:50:59.869Z,12.26
2023-02-22T18:52:02.854Z,14.10
2023-02-22T18:53:05.841Z,12.48
2023-02-22T18:54:08.509Z,12.21
2023-02-22T18:55:11.381Z,10.55
2023-02-22T18:56:14.153Z,11.14
2023-02-22T18:57:17.021Z,16.68
2023-02-22T18:58:19.912Z,13.41
2023-02-22T18:59:23.010Z,10.04
2023-02-22T19:00:25.751Z,12.08
2023-02-22T19:01:28.689Z,13.75
2023-02-22T19:02:31.559Z,12.86
2023-02-22T19:03:34.676Z,10.49
2023-02-22T19:04:37.757Z,14.78
2023-02-22T19:05:40.657Z,11.02
2023-02-22T19:06:43.813Z,10.58
2023-02-22T19:07:46.808Z,12.13
2023-02-22T19:08:50.099Z,10.62
2023-02-22T19:09:53.139Z,9.19
2023-02-22T19:10:56.255Z,10.87
2023-02-22T19:11:59.237Z,14.45
2023-02-22T19:13:02.025Z,10.54
2023-02-22T19:14:04.864Z,11.86
2023-02-22T19:15:08.056Z,12.74
2023-02-22T19:16:10.974Z,15.20
2023-02-22T19:17:13.840Z,12.05
2023-02-22T19:18:16.676Z,11.46
2023-02-22T19:19:19.646Z,12.97
2023-02-22T19:20:22.770Z,11.42
2023-02-22T19:21:25.707Z,12.06
2023-02-22T19:22:28.472Z,9.42
2023-02-22T19:23:34.324Z,10.10
2023-02-22T19:24:35.778Z,10.12
2023-02-22T19:25:39.147Z,11.85
2023-02-22T19:26:42.152Z,13.84
2023-02-22T19:27:45.102Z,11.25
2023-02-22T19:28:48.280Z,13.45
2023-02-22T19:29:51.152Z,11.18
2023-02-22T19:30:54.362Z,11.39
2023-02-22T19:31:57.503Z,12.18
2023-02-22T19:33:00.603Z,12.69
2023-02-22T19:34:03.572Z,10.61
2023-02-22T19:35:06.836Z,11.70
2023-02-22T19:36:10.783Z,9.48
2023-02-22T19:37:13.752Z,11.61
2023-02-22T19:38:16.510Z,10.54
2023-02-22T19:39:19.906Z,10.65
2023-02-22T19:40:23.003Z,10.95
2023-02-22T19:41:26.047Z,11.36
2023-02-22T19:42:29.130Z,11.49
2023-02-22T19:43:32.120Z,8.66
2023-02-22T19:44:35.392Z,10.02
2023-02-22T19:45:38.281Z,9.76
2023-02-22T19:46:41.650Z,8.49
2023-02-22T19:47:44.534Z,12.59
2023-02-22T19:48:47.298Z,13.74
2023-02-22T19:49:50.284Z,8.75
2023-02-22T19:50:53.050Z,10.28
2023-02-22T19:51:56.330Z,11.63
2023-02-22T19:52:59.210Z,11.30
2023-02-22T19:54:02.187Z,11.17
2023-02-22T19:55:05.292Z,12.05
2023-02-22T19:56:08.049Z,13.41
2023-02-22T19:57:11.187Z,10.29
2023-02-22T19:58:14.187Z,14.31
2023-02-22T19:59:17.270Z,14.34
2023-02-22T20:00:20.260Z,14.16
2023-02-22T20:01:23.242Z,15.85
2023-02-22T20:02:26.666Z,14.72
2023-02-22T20:03:29.647Z,11.83
2023-02-22T20:04:32.604Z,13.98
2023-02-22T20:05:35.450Z,13.43
2023-02-22T20:06:38.213Z,14.91
2023-02-22T20:07:41.295Z,17.92
2023-02-22T20:08:44.073Z,13.46
2023-02-22T20:09:46.945Z,15.15
2023-02-22T20:10:49.813Z,13.92
2023-02-22T20:11:52.691Z,15.78
2023-02-22T20:12:55.973Z,13.88
2023-02-22T20:13:58.877Z,12.67
2023-02-22T20:15:01.623Z,12.42
2023-02-22T20:16:04.601Z,15.48
2023-02-22T20:17:07.804Z,15.50
2023-02-22T20:18:10.961Z,14.67
2023-02-22T20:19:13.764Z,13.10
2023-02-22T20:20:16.815Z,11.91
2023-02-22T20:21:20.213Z,13.75
2023-02-22T20:22:23.414Z,19.19
2023-02-22T20:23:26.491Z,16.45
2023-02-22T20:24:29.231Z,16.19
2023-02-22T20:25:32.213Z,16.55
2023-02-22T20:26:35.292Z,15.15
2023-02-22T20:27:38.271Z,17.28
2023-02-22T20:28:41.366Z,17.41
2023-02-22T20:29:44.942Z,17.10
2023-02-22T20:30:47.822Z,16.83
2023-02-22T20:31:50.686Z,17.00
2023-02-22T20:32:54.136Z,16.28
2023-02-22T20:33:57.646Z,18.58
2023-02-22T20:35:01.668Z,17.37
2023-02-22T20:36:04.546Z,17.21
2023-02-22T20:37:07.619Z,16.19
2023-02-22T20:38:10.627Z,18.55
2023-02-22T20:39:13.663Z,19.42
2023-02-22T20:40:16.558Z,18.91
2023-02-22T20:41:19.495Z,18.95
2023-02-22T20:42:22.518Z,20.65
2023-02-22T20:43:25.705Z,20.58
2023-02-22T20:44:28.397Z,22.81
2023-02-22T20:45:30.841Z,19.18
2023-02-22T20:46:33.393Z,21.17
2023-02-22T20:47:36.163Z,20.78
2023-02-22T20:48:38.846Z,17.56
2023-02-22T20:49:42.038Z,16.52
2023-02-22T20:50:45.013Z,16.03
2023-02-22T20:51:47.709Z,17.91
2023-02-22T20:52:50.556Z,18.49
2023-02-22T20:53:53.107Z,19.90
2023-02-22T20:54:56.187Z,17.05
2023-02-22T20:55:59.071Z,18.18
2023-02-22T20:57:01.934Z,17.25
2023-02-22T20:58:04.742Z,21.38
2023-02-22T20:59:07.396Z,17.91
2023-02-22T21:00:10.250Z,15.20
2023-02-22T21:01:13.056Z,15.69
2023-02-22T21:02:15.692Z,20.72
2023-02-22T21:03:18.687Z,18.85
2023-02-22T21:04:21.524Z,18.66
2023-02-22T21:05:24.534Z,20.65
2023-02-22T21:06:27.519Z,18.29
2023-02-22T21:07:30.589Z,24.25
2023-02-22T21:08:33.662Z,24.72
2023-02-22T21:09:36.654Z,24.82
2023-02-22T21:10:39.731Z,19.62
2023-02-22T21:11:42.509Z,20.88
2023-02-22T21:12:46.478Z,21.44
2023-02-22T21:13:49.890Z,19.93
2023-02-22T21:14:53.568Z,19.34
2023-02-22T21:15:56.868Z,21.04
2023-02-22T21:17:00.041Z,22.55
2023-02-22T21:18:03.152Z,18.60
2023-02-22T21:19:06.230Z,18.62
2023-02-22T21:20:09.182Z,21.13
2023-02-22T21:21:12.167Z,20.71
2023-02-22T21:22:15.447Z,19.65
2023-02-22T21:23:18.752Z,21.50
2023-02-22T21:24:22.016Z,23.68
2023-02-22T21:25:25.201Z,22.67
2023-02-22T21:26:28.884Z,20.49
2023-02-22T21:27:32.273Z,19.75
2023-02-22T21:28:50.523Z,19.82
2023-02-22T21:29:40.193Z,17.67
2023-02-22T21:30:43.234Z,21.76
2023-02-22T21:31:46.789Z,19.32
2023-02-22T21:32:49.945Z,18.87
2023-02-22T21:33:52.990Z,18.92
2023-02-22T21:34:55.785Z,21.16
2023-02-22T21:35:58.643Z,21.82
2023-02-22T21:37:02.040Z,24.80
2023-02-22T21:38:04.900Z,21.19
2023-02-22T21:39:07.887Z,19.42
2023-02-22T21:40:10.886Z,24.45
2023-02-22T21:41:13.732Z,24.54
2023-02-22T21:42:16.820Z,22.65
2023-02-22T21:43:19.683Z,23.38
2023-02-22T21:44:22.785Z,22.34
2023-02-22T21:45:25.739Z,24.88
2023-02-22T21:46:28.937Z,24.00
2023-02-22T21:47:32.432Z,25.19
2023-02-22T21:48:35.402Z,22.45
2023-02-22T21:49:38.785Z,23.37
2023-02-22T21:50:41.651Z,20.40
2023-02-22T21:51:44.425Z,18.05
2023-02-22T21:52:47.618Z,20.69
2023-02-22T21:53:50.585Z,21.81
2023-02-22T21:54:53.676Z,18.37
2023-02-22T21:55:56.432Z,16.84
2023-02-22T21:56:59.310Z,15.71
2023-02-22T21:58:02.387Z,15.65
2023-02-22T21:59:05.471Z,18.90
2023-02-22T22:00:08.654Z,19.42
2023-02-22T22:01:11.650Z,18.91
2023-02-22T22:02:15.008Z,19.22
2023-02-22T22:03:18.304Z,22.79
2023-02-22T22:04:21.296Z,17.75
2023-02-22T22:05:24.353Z,20.68
2023-02-22T22:06:27.160Z,23.33
2023-02-22T22:07:30.020Z,20.40
2023-02-22T22:08:32.881Z,17.85
2023-02-22T22:09:35.652Z,19.23
2023-02-22T22:10:38.622Z,20.66
2023-02-22T22:11:41.494Z,20.42
2023-02-22T22:12:44.268Z,20.19
2023-02-22T22:13:47.449Z,20.74
2023-02-22T22:14:50.536Z,19.40
2023-02-22T22:15:53.569Z,19.75
2023-02-22T22:16:56.385Z,17.84
2023-02-22T22:17:59.156Z,17.34
2023-02-22T22:19:02.434Z,20.25
2023-02-22T22:20:05.417Z,19.86
2023-02-22T22:21:08.594Z,22.95
2023-02-22T22:22:11.687Z,27.40
2023-02-22T22:23:14.770Z,24.26
2023-02-22T22:24:17.836Z,23.78
2023-02-22T22:25:20.818Z,25.79
2023-02-22T22:26:23.710Z,23.55
2023-02-22T22:27:26.448Z,22.36
2023-02-22T22:28:29.434Z,22.09
2023-02-22T22:29:32.813Z,25.27
2023-02-22T22:30:35.942Z,22.92
2023-02-22T22:31:39.087Z,22.40
2023-02-22T22:32:42.067Z,23.14
2023-02-22T22:33:44.831Z,24.21
2023-02-22T22:34:48.221Z,22.25
2023-02-22T22:35:51.293Z,24.74
2023-02-22T22:36:54.076Z,22.85
2023-02-22T22:37:57.044Z,22.63
2023-02-22T22:39:00.249Z,25.05
2023-02-22T22:40:03.334Z,30.83
2023-02-22T22:41:06.286Z,25.84
2023-02-22T22:42:09.170Z,23.84
2023-02-22T22:43:12.028Z,22.25
2023-02-22T22:44:15.070Z,23.14
2023-02-22T22:45:18.359Z,28.14
2023-02-22T22:46:21.294Z,23.46
2023-02-22T22:47:24.244Z,25.65
2023-02-22T22:48:27.225Z,21.05
2023-02-22T22:49:30.357Z,26.58
2023-02-22T22:50:33.586Z,27.60
2023-02-22T22:51:36.599Z,22.96
2023-02-22T22:52:39.446Z,24.57
2023-02-22T22:53:42.319Z,26.41
2023-02-22T22:54:45.386Z,27.01
2023-02-22T22:55:48.794Z,21.55
2023-02-22T22:56:51.572Z,24.29
2023-02-22T22:57:54.424Z,26.85
2023-02-22T22:58:57.436Z,30.54
2023-02-22T23:00:00.410Z,26.99
2023-02-22T23:01:03.381Z,25.14
2023-02-22T23:02:06.542Z,30.53
2023-02-22T23:03:09.658Z,29.49
2023-02-22T23:04:12.806Z,30.59
2023-02-22T23:05:15.682Z,30.09
2023-02-22T23:06:18.750Z,27.73
2023-02-22T23:07:21.836Z,27.46
2023-02-22T23:08:24.810Z,24.22
2023-02-22T23:09:27.790Z,24.81
2023-02-22T23:10:30.762Z,27.55
2023-02-22T23:11:33.950Z,25.36
2023-02-22T23:12:36.714Z,27.27
2023-02-22T23:13:39.911Z,25.29
2023-02-22T23:14:42.691Z,31.39
2023-02-22T23:15:45.811Z,28.41
2023-02-22T23:16:49.048Z,28.38
2023-02-22T23:17:52.129Z,24.66
2023-02-22T23:18:55.009Z,24.97
2023-02-22T23:19:58.082Z,27.85
2023-02-22T23:21:01.257Z,26.23
2023-02-22T23:22:04.435Z,26.16
2023-02-22T23:23:08.037Z,25.89
2023-02-22T23:24:11.006Z,26.38
2023-02-22T23:25:14.816Z,26.00
2023-02-22T23:26:18.408Z,28.96
2023-02-22T23:27:22.604Z,32.22
2023-02-22T23:28:26.324Z,27.60
2023-02-22T23:29:29.393Z,31.00
2023-02-22T23:30:32.972Z,32.10
2023-02-22T23:31:36.264Z,31.61
2023-02-22T23:32:39.715Z,26.74
2023-02-22T23:33:42.518Z,28.86
2023-02-22T23:34:45.394Z,31.78
2023-02-22T23:35:48.252Z,29.11
2023-02-22T23:36:51.330Z,34.08
2023-02-22T23:37:54.426Z,34.98
2023-02-22T23:38:57.390Z,29.68
2023-02-22T23:40:00.364Z,30.03
2023-02-22T23:41:03.345Z,33.44
2023-02-22T23:42:06.247Z,27.18
2023-02-22T23:43:09.516Z,26.50
2023-02-22T23:44:12.486Z,26.05
2023-02-22T23:45:15.354Z,27.47
2023-02-22T23:46:18.940Z,25.98
2023-02-22T23:47:22.163Z,25.18
2023-02-22T23:48:25.137Z,24.02
2023-02-22T23:49:28.084Z,22.97
2023-02-22T23:50:30.766Z,25.04
2023-02-22T23:51:33.527Z,24.75
2023-02-22T23:52:36.806Z,29.80
2023-02-22T23:53:40.119Z,25.39
2023-02-22T23:54:42.967Z,26.73
2023-02-22T23:55:46.254Z,23.28
2023-02-22T23:56:49.431Z,24.01
2023-02-22T23:57:52.311Z,28.09
2023-02-22T23:58:55.393Z,23.77
2023-02-22T23:59:58.278Z,24.05
